sensor_id;sensor_type;location;lat;lon;timestamp;P1;durP1;ratioP1;P2;durP2;ratioP2
69917;SDS011;57203;42.672;23.334;2023-03-01T00:00:11;3.9;;;3.5;;
69917;SDS011;57203;42.672;23.334;2023-03-01T00:01:11;4.7;;;3.6;;
69917;SDS011;57203;42.672;23.334;2023-03-01T00:02:11;5.8;;;3.8;;
69917;SDS011;57203;42.672;23.334;2023-03-01T00:03:11;3.9;;;3.2;;
69917;SDS011;57203;42.672;23.334;2023-03-01T00:05:11;4.4;;;3.4;;
69917;SDS011;57203;42.672;23.334;2023-03-01T00:08:12;4.1;;;3.3;;
69917;SDS011;57203;42.672;23.334;2023-03-01T00:09:12;4.0;;;3.5;;
69917;SDS011;57203;42.672;23.334;2023-03-01T00:12:12;4.0;;;3.7;;
69917;SDS011;57203;42.672;23.334;2023-03-01T00:13:12;4.6;;;3.4;;
69917;SDS011;57203;42.672;23.334;2023-03-01T00:14:12;3.8;;;3.7;;
69917;SDS011;57203;42.672;23.334;2023-03-01T00:15:13;4.9;;;3.6;;
69917;SDS011;57203;42.672;23.334;2023-03-01T00:16:14;4.9;;;3.5;;
69917;SDS011;57203;42.672;23.334;2023-03-01T00:17:13;4.7;;;3.3;;
69917;SDS011;57203;42.672;23.334;2023-03-01T00:18:13;4.6;;;3.7;;
69917;SDS011;57203;42.672;23.334;2023-03-01T00:19:14;4.4;;;3.6;;
69917;SDS011;57203;42.672;23.334;2023-03-01T00:20:13;4.4;;;3.5;;
69917;SDS011;57203;42.672;23.334;2023-03-01T00:21:14;3.9;;;3.4;;
69917;SDS011;57203;42.672;23.334;2023-03-01T00:23:14;4.7;;;3.2;;
69917;SDS011;57203;42.672;23.334;2023-03-01T00:24:14;3.5;;;3.3;;
69917;SDS011;57203;42.672;23.334;2023-03-01T00:25:14;4.0;;;3.5;;
69917;SDS011;57203;42.672;23.334;2023-03-01T00:26:14;4.0;;;3.2;;
69917;SDS011;57203;42.672;23.334;2023-03-01T00:27:15;3.5;;;3.1;;
69917;SDS011;57203;42.672;23.334;2023-03-01T00:28:15;4.2;;;3.3;;
69917;SDS011;57203;42.672;23.334;2023-03-01T00:29:15;4.7;;;3.4;;
69917;SDS011;57203;42.672;23.334;2023-03-01T00:30:15;4.7;;;3.7;;
69917;SDS011;57203;42.672;23.334;2023-03-01T00:31:16;4.6;;;3.4;;
69917;SDS011;57203;42.672;23.334;2023-03-01T00:32:15;4.6;;;3.8;;
69917;SDS011;57203;42.672;23.334;2023-03-01T00:33:15;4.6;;;3.1;;
69917;SDS011;57203;42.672;23.334;2023-03-01T00:36:16;4.4;;;3.3;;
69917;SDS011;57203;42.672;23.334;2023-03-01T00:37:16;4.9;;;3.1;;
69917;SDS011;57203;42.672;23.334;2023-03-01T00:38:16;3.6;;;3.3;;
69917;SDS011;57203;42.672;23.334;2023-03-01T00:39:16;3.6;;;3.2;;
69917;SDS011;57203;42.672;23.334;2023-03-01T00:40:17;4.7;;;3.5;;
69917;SDS011;57203;42.672;23.334;2023-03-01T00:41:17;4.2;;;3.2;;
69917;SDS011;57203;42.672;23.334;2023-03-01T00:42:17;3.4;;;3.1;;
69917;SDS011;57203;42.672;23.334;2023-03-01T00:43:17;3.4;;;3.6;;
69917;SDS011;57203;42.672;23.334;2023-03-01T00:44:17;3.5;;;2.9;;
69917;SDS011;57203;42.672;23.334;2023-03-01T00:45:17;3.5;;;3.1;;
69917;SDS011;57203;42.672;23.334;2023-03-01T00:46:19;3.5;;;3.4;;
69917;SDS011;57203;42.672;23.334;2023-03-01T00:47:18;4.0;;;3.2;;
69917;SDS011;57203;42.672;23.334;2023-03-01T00:48:18;3.8;;;3.0;;
69917;SDS011;57203;42.672;23.334;2023-03-01T00:50:18;3.5;;;2.6;;
69917;SDS011;57203;42.672;23.334;2023-03-01T00:51:19;3.6;;;3.0;;
69917;SDS011;57203;42.672;23.334;2023-03-01T00:52:19;3.6;;;3.1;;
69917;SDS011;57203;42.672;23.334;2023-03-01T00:54:19;3.3;;;2.8;;
69917;SDS011;57203;42.672;23.334;2023-03-01T00:55:19;3.6;;;3.0;;
69917;SDS011;57203;42.672;23.334;2023-03-01T00:56:19;3.6;;;2.8;;
69917;SDS011;57203;42.672;23.334;2023-03-01T00:57:19;5.0;;;3.2;;
69917;SDS011;57203;42.672;23.334;2023-03-01T00:58:20;3.6;;;2.8;;
69917;SDS011;57203;42.672;23.334;2023-03-01T00:59:20;4.4;;;3.2;;
69917;SDS011;57203;42.672;23.334;2023-03-01T01:00:20;3.8;;;2.7;;
69917;SDS011;57203;42.672;23.334;2023-03-01T01:01:21;3.6;;;2.9;;
69917;SDS011;57203;42.672;23.334;2023-03-01T01:04:20;3.9;;;2.8;;
69917;SDS011;57203;42.672;23.334;2023-03-01T01:05:21;3.1;;;2.4;;
69917;SDS011;57203;42.672;23.334;2023-03-01T01:07:21;3.0;;;2.8;;
69917;SDS011;57203;42.672;23.334;2023-03-01T01:08:21;3.3;;;2.5;;
69917;SDS011;57203;42.672;23.334;2023-03-01T01:09:21;3.4;;;2.8;;
69917;SDS011;57203;42.672;23.334;2023-03-01T01:10:21;3.4;;;3.5;;
69917;SDS011;57203;42.672;23.334;2023-03-01T01:11:22;5.3;;;3.2;;
69917;SDS011;57203;42.672;23.334;2023-03-01T01:13:22;4.7;;;3.9;;
69917;SDS011;57203;42.672;23.334;2023-03-01T01:14:22;5.9;;;2.9;;
69917;SDS011;57203;42.672;23.334;2023-03-01T01:15:22;4.3;;;3.3;;
69917;SDS011;57203;42.672;23.334;2023-03-01T01:16:23;6.0;;;4.3;;
69917;SDS011;57203;42.672;23.334;2023-03-01T01:17:23;4.7;;;3.3;;
69917;SDS011;57203;42.672;23.334;2023-03-01T01:18:23;4.7;;;3.5;;
69917;SDS011;57203;42.672;23.334;2023-03-01T01:19:23;5.0;;;2.6;;
69917;SDS011;57203;42.672;23.334;2023-03-01T01:20:23;3.0;;;2.2;;
69917;SDS011;57203;42.672;23.334;2023-03-01T01:21:24;2.7;;;2.3;;
69917;SDS011;57203;42.672;23.334;2023-03-01T01:22:23;2.7;;;2.1;;
69917;SDS011;57203;42.672;23.334;2023-03-01T01:23:24;2.4;;;2.2;;
69917;SDS011;57203;42.672;23.334;2023-03-01T01:24:24;2.4;;;2.0;;
69917;SDS011;57203;42.672;23.334;2023-03-01T01:25:24;2.3;;;2.1;;
69917;SDS011;57203;42.672;23.334;2023-03-01T01:28:24;2.7;;;1.9;;
69917;SDS011;57203;42.672;23.334;2023-03-01T01:29:25;2.2;;;2.3;;
69917;SDS011;57203;42.672;23.334;2023-03-01T01:30:25;2.6;;;2.2;;
69917;SDS011;57203;42.672;23.334;2023-03-01T01:31:25;3.6;;;1.9;;
69917;SDS011;57203;42.672;23.334;2023-03-01T01:32:25;2.5;;;2.2;;
69917;SDS011;57203;42.672;23.334;2023-03-01T01:33:25;2.5;;;2.3;;
69917;SDS011;57203;42.672;23.334;2023-03-01T01:35:25;2.6;;;2.2;;
69917;SDS011;57203;42.672;23.334;2023-03-01T01:36:26;2.6;;;2.4;;
69917;SDS011;57203;42.672;23.334;2023-03-01T01:37:26;2.3;;;2.0;;
69917;SDS011;57203;42.672;23.334;2023-03-01T01:38:26;2.3;;;2.1;;
69917;SDS011;57203;42.672;23.334;2023-03-01T01:39:26;2.3;;;2.3;;
69917;SDS011;57203;42.672;23.334;2023-03-01T01:40:26;4.2;;;1.9;;
69917;SDS011;57203;42.672;23.334;2023-03-01T01:41:27;2.5;;;2.0;;
69917;SDS011;57203;42.672;23.334;2023-03-01T01:42:27;2.4;;;1.8;;
69917;SDS011;57203;42.672;23.334;2023-03-01T01:43:28;2.5;;;2.0;;
69917;SDS011;57203;42.672;23.334;2023-03-01T01:44:27;2.5;;;1.9;;
69917;SDS011;57203;42.672;23.334;2023-03-01T01:45:29;2.3;;;2.0;;
69917;SDS011;57203;42.672;23.334;2023-03-01T01:46:28;2.1;;;1.9;;
69917;SDS011;57203;42.672;23.334;2023-03-01T01:47:27;2.1;;;2.0;;
69917;SDS011;57203;42.672;23.334;2023-03-01T01:49:30;2.6;;;2.1;;
69917;SDS011;57203;42.672;23.334;2023-03-01T01:50:28;2.1;;;1.9;;
69917;SDS011;57203;42.672;23.334;2023-03-01T01:54:30;2.1;;;1.8;;
69917;SDS011;57203;42.672;23.334;2023-03-01T01:56:29;2.3;;;1.9;;
69917;SDS011;57203;42.672;23.334;2023-03-01T01:57:31;2.2;;;1.8;;
69917;SDS011;57203;42.672;23.334;2023-03-01T01:58:29;2.2;;;1.9;;
69917;SDS011;57203;42.672;23.334;2023-03-01T01:59:30;2.1;;;2.1;;
69917;SDS011;57203;42.672;23.334;2023-03-01T02:00:30;2.3;;;2.0;;
69917;SDS011;57203;42.672;23.334;2023-03-01T02:01:30;2.2;;;2.1;;
69917;SDS011;57203;42.672;23.334;2023-03-01T02:02:30;2.6;;;1.7;;
69917;SDS011;57203;42.672;23.334;2023-03-01T02:03:31;1.9;;;2.0;;
69917;SDS011;57203;42.672;23.334;2023-03-01T02:04:30;2.6;;;1.8;;
69917;SDS011;57203;42.672;23.334;2023-03-01T02:05:33;2.0;;;1.5;;
69917;SDS011;57203;42.672;23.334;2023-03-01T02:06:31;1.6;;;1.8;;
69917;SDS011;57203;42.672;23.334;2023-03-01T02:07:31;2.6;;;2.1;;
69917;SDS011;57203;42.672;23.334;2023-03-01T02:08:31;2.6;;;1.8;;
69917;SDS011;57203;42.672;23.334;2023-03-01T02:09:31;1.7;;;1.6;;
69917;SDS011;57203;42.672;23.334;2023-03-01T02:11:31;2.0;;;1.8;;
69917;SDS011;57203;42.672;23.334;2023-03-01T02:12:32;2.0;;;1.4;;
69917;SDS011;57203;42.672;23.334;2023-03-01T02:13:32;1.6;;;1.9;;
69917;SDS011;57203;42.672;23.334;2023-03-01T02:14:32;1.7;;;1.6;;
69917;SDS011;57203;42.672;23.334;2023-03-01T02:15:32;1.7;;;1.7;;
69917;SDS011;57203;42.672;23.334;2023-03-01T02:16:32;1.7;;;1.6;;
69917;SDS011;57203;42.672;23.334;2023-03-01T02:17:32;1.7;;;1.5;;
69917;SDS011;57203;42.672;23.334;2023-03-01T02:18:33;1.9;;;1.7;;
69917;SDS011;57203;42.672;23.334;2023-03-01T02:19:37;1.7;;;1.6;;
69917;SDS011;57203;42.672;23.334;2023-03-01T02:20:34;2.2;;;1.8;;
69917;SDS011;57203;42.672;23.334;2023-03-01T02:21:36;1.9;;;1.6;;
69917;SDS011;57203;42.672;23.334;2023-03-01T02:22:34;1.9;;;1.8;;
69917;SDS011;57203;42.672;23.334;2023-03-01T02:23:33;2.1;;;1.9;;
69917;SDS011;57203;42.672;23.334;2023-03-01T02:24:37;2.2;;;2.0;;
69917;SDS011;57203;42.672;23.334;2023-03-01T02:25:35;2.2;;;1.9;;
69917;SDS011;57203;42.672;23.334;2023-03-01T02:27:36;2.0;;;1.7;;
69917;SDS011;57203;42.672;23.334;2023-03-01T02:29:34;1.8;;;1.6;;
69917;SDS011;57203;42.672;23.334;2023-03-01T02:31:35;1.7;;;2.1;;
69917;SDS011;57203;42.672;23.334;2023-03-01T02:32:35;2.1;;;1.9;;
69917;SDS011;57203;42.672;23.334;2023-03-01T02:33:36;2.1;;;1.8;;
69917;SDS011;57203;42.672;23.334;2023-03-01T02:35:37;1.9;;;2.0;;
69917;SDS011;57203;42.672;23.334;2023-03-01T02:37:36;1.9;;;1.7;;
69917;SDS011;57203;42.672;23.334;2023-03-01T02:39:36;2.1;;;1.8;;
69917;SDS011;57203;42.672;23.334;2023-03-01T02:40:36;2.1;;;1.7;;
69917;SDS011;57203;42.672;23.334;2023-03-01T02:41:38;2.0;;;1.8;;
69917;SDS011;57203;42.672;23.334;2023-03-01T02:43:37;2.2;;;1.9;;
69917;SDS011;57203;42.672;23.334;2023-03-01T02:44:37;2.2;;;1.8;;
69917;SDS011;57203;42.672;23.334;2023-03-01T02:45:37;2.4;;;1.9;;
69917;SDS011;57203;42.672;23.334;2023-03-01T02:47:37;2.2;;;2.0;;
69917;SDS011;57203;42.672;23.334;2023-03-01T02:49:38;2.2;;;2.1;;
69917;SDS011;57203;42.672;23.334;2023-03-01T02:50:45;2.3;;;2.0;;
69917;SDS011;57203;42.672;23.334;2023-03-01T02:51:41;2.5;;;2.3;;
69917;SDS011;57203;42.672;23.334;2023-03-01T02:52:41;3.0;;;2.1;;
69917;SDS011;57203;42.672;23.334;2023-03-01T02:53:39;2.5;;;2.3;;
69917;SDS011;57203;42.672;23.334;2023-03-01T02:54:40;2.5;;;2.2;;
69917;SDS011;57203;42.672;23.334;2023-03-01T02:55:38;2.6;;;2.0;;
69917;SDS011;57203;42.672;23.334;2023-03-01T02:56:39;2.4;;;2.1;;
69917;SDS011;57203;42.672;23.334;2023-03-01T02:58:39;2.3;;;2.4;;
69917;SDS011;57203;42.672;23.334;2023-03-01T02:59:39;2.7;;;2.3;;
69917;SDS011;57203;42.672;23.334;2023-03-01T03:00:40;2.6;;;2.4;;
69917;SDS011;57203;42.672;23.334;2023-03-01T03:01:39;2.6;;;2.5;;
69917;SDS011;57203;42.672;23.334;2023-03-01T03:02:40;3.5;;;2.6;;
69917;SDS011;57203;42.672;23.334;2023-03-01T03:03:40;3.5;;;2.5;;
69917;SDS011;57203;42.672;23.334;2023-03-01T03:05:40;4.5;;;2.3;;
69917;SDS011;57203;42.672;23.334;2023-03-01T03:06:40;3.3;;;2.5;;
69917;SDS011;57203;42.672;23.334;2023-03-01T03:07:42;3.0;;;2.7;;
69917;SDS011;57203;42.672;23.334;2023-03-01T03:09:41;3.3;;;2.6;;
69917;SDS011;57203;42.672;23.334;2023-03-01T03:10:41;3.0;;;2.5;;
69917;SDS011;57203;42.672;23.334;2023-03-01T03:11:41;2.9;;;2.6;;
69917;SDS011;57203;42.672;23.334;2023-03-01T03:12:41;2.8;;;2.3;;
69917;SDS011;57203;42.672;23.334;2023-03-01T03:13:41;2.8;;;2.4;;
69917;SDS011;57203;42.672;23.334;2023-03-01T03:14:42;4.8;;;2.7;;
69917;SDS011;57203;42.672;23.334;2023-03-01T03:16:42;3.1;;;2.4;;
69917;SDS011;57203;42.672;23.334;2023-03-01T03:17:42;3.0;;;2.7;;
69917;SDS011;57203;42.672;23.334;2023-03-01T03:18:42;3.3;;;2.9;;
69917;SDS011;57203;42.672;23.334;2023-03-01T03:19:42;3.3;;;2.5;;
69917;SDS011;57203;42.672;23.334;2023-03-01T03:20:43;2.8;;;3.0;;
69917;SDS011;57203;42.672;23.334;2023-03-01T03:21:43;3.6;;;2.7;;
69917;SDS011;57203;42.672;23.334;2023-03-01T03:22:43;3.4;;;3.1;;
69917;SDS011;57203;42.672;23.334;2023-03-01T03:23:43;3.4;;;3.0;;
69917;SDS011;57203;42.672;23.334;2023-03-01T03:24:43;4.2;;;2.8;;
69917;SDS011;57203;42.672;23.334;2023-03-01T03:25:43;3.5;;;2.9;;
69917;SDS011;57203;42.672;23.334;2023-03-01T03:27:44;4.4;;;3.0;;
69917;SDS011;57203;42.672;23.334;2023-03-01T03:28:44;3.2;;;2.8;;
69917;SDS011;57203;42.672;23.334;2023-03-01T03:29:44;3.2;;;2.4;;
69917;SDS011;57203;42.672;23.334;2023-03-01T03:30:44;3.0;;;2.9;;
69917;SDS011;57203;42.672;23.334;2023-03-01T03:31:44;3.6;;;2.7;;
69917;SDS011;57203;42.672;23.334;2023-03-01T03:32:46;3.8;;;2.4;;
69917;SDS011;57203;42.672;23.334;2023-03-01T03:33:45;2.8;;;2.7;;
69917;SDS011;57203;42.672;23.334;2023-03-01T03:34:45;3.4;;;2.5;;
69917;SDS011;57203;42.672;23.334;2023-03-01T03:35:46;3.2;;;2.9;;
69917;SDS011;57203;42.672;23.334;2023-03-01T03:37:45;3.2;;;3.0;;
69917;SDS011;57203;42.672;23.334;2023-03-01T03:38:46;3.4;;;2.5;;
69917;SDS011;57203;42.672;23.334;2023-03-01T03:39:46;2.8;;;2.2;;
69917;SDS011;57203;42.672;23.334;2023-03-01T03:40:46;2.9;;;2.6;;
69917;SDS011;57203;42.672;23.334;2023-03-01T03:41:46;2.9;;;2.1;;
69917;SDS011;57203;42.672;23.334;2023-03-01T03:42:46;3.9;;;2.6;;
69917;SDS011;57203;42.672;23.334;2023-03-01T03:43:46;3.5;;;2.4;;
69917;SDS011;57203;42.672;23.334;2023-03-01T03:45:47;2.9;;;2.3;;
69917;SDS011;57203;42.672;23.334;2023-03-01T03:46:47;3.2;;;2.7;;
69917;SDS011;57203;42.672;23.334;2023-03-01T03:47:47;2.9;;;2.3;;
69917;SDS011;57203;42.672;23.334;2023-03-01T03:48:47;2.9;;;2.6;;
69917;SDS011;57203;42.672;23.334;2023-03-01T03:49:47;3.7;;;2.5;;
69917;SDS011;57203;42.672;23.334;2023-03-01T03:51:48;3.6;;;2.7;;
69917;SDS011;57203;42.672;23.334;2023-03-01T03:52:48;3.6;;;3.1;;
69917;SDS011;57203;42.672;23.334;2023-03-01T03:53:48;5.1;;;2.8;;
69917;SDS011;57203;42.672;23.334;2023-03-01T03:54:48;4.2;;;2.6;;
69917;SDS011;57203;42.672;23.334;2023-03-01T03:55:48;4.2;;;2.4;;
69917;SDS011;57203;42.672;23.334;2023-03-01T03:56:48;4.0;;;2.6;;
69917;SDS011;57203;42.672;23.334;2023-03-01T03:57:48;3.4;;;2.8;;
69917;SDS011;57203;42.672;23.334;2023-03-01T03:58:49;4.8;;;2.7;;
69917;SDS011;57203;42.672;23.334;2023-03-01T03:59:49;4.3;;;3.3;;
69917;SDS011;57203;42.672;23.334;2023-03-01T04:00:50;4.3;;;2.5;;
69917;SDS011;57203;42.672;23.334;2023-03-01T04:01:49;2.8;;;2.8;;
69917;SDS011;57203;42.672;23.334;2023-03-01T04:02:50;3.3;;;2.4;;
69917;SDS011;57203;42.672;23.334;2023-03-01T04:03:49;3.3;;;2.7;;
69917;SDS011;57203;42.672;23.334;2023-03-01T04:05:50;3.4;;;3.0;;
69917;SDS011;57203;42.672;23.334;2023-03-01T04:06:50;3.6;;;2.9;;
69917;SDS011;57203;42.672;23.334;2023-03-01T04:07:50;3.8;;;3.0;;
69917;SDS011;57203;42.672;23.334;2023-03-01T04:08:50;3.3;;;2.5;;
69917;SDS011;57203;42.672;23.334;2023-03-01T04:10:51;3.0;;;2.7;;
69917;SDS011;57203;42.672;23.334;2023-03-01T04:11:51;3.0;;;3.0;;
69917;SDS011;57203;42.672;23.334;2023-03-01T04:12:51;3.7;;;3.3;;
69917;SDS011;57203;42.672;23.334;2023-03-01T04:13:52;3.7;;;2.6;;
69917;SDS011;57203;42.672;23.334;2023-03-01T04:14:51;3.4;;;3.0;;
69917;SDS011;57203;42.672;23.334;2023-03-01T04:15:52;3.4;;;2.6;;
69917;SDS011;57203;42.672;23.334;2023-03-01T04:20:53;3.4;;;2.2;;
69917;SDS011;57203;42.672;23.334;2023-03-01T04:21:52;3.5;;;2.5;;
69917;SDS011;57203;42.672;23.334;2023-03-01T04:22:56;3.1;;;2.6;;
69917;SDS011;57203;42.672;23.334;2023-03-01T04:23:53;4.0;;;3.0;;
69917;SDS011;57203;42.672;23.334;2023-03-01T04:24:53;4.0;;;2.8;;
69917;SDS011;57203;42.672;23.334;2023-03-01T04:25:54;3.0;;;2.5;;
69917;SDS011;57203;42.672;23.334;2023-03-01T04:26:53;3.1;;;2.6;;
69917;SDS011;57203;42.672;23.334;2023-03-01T04:27:53;3.1;;;3.0;;
69917;SDS011;57203;42.672;23.334;2023-03-01T04:28:53;2.6;;;2.4;;
69917;SDS011;57203;42.672;23.334;2023-03-01T04:29:54;3.0;;;2.7;;
69917;SDS011;57203;42.672;23.334;2023-03-01T04:30:55;3.0;;;2.5;;
69917;SDS011;57203;42.672;23.334;2023-03-01T04:32:54;3.3;;;2.8;;
69917;SDS011;57203;42.672;23.334;2023-03-01T04:33:54;3.3;;;2.7;;
69917;SDS011;57203;42.672;23.334;2023-03-01T04:34:54;4.1;;;2.8;;
69917;SDS011;57203;42.672;23.334;2023-03-01T04:35:55;4.1;;;2.2;;
69917;SDS011;57203;42.672;23.334;2023-03-01T04:36:55;3.7;;;2.5;;
69917;SDS011;57203;42.672;23.334;2023-03-01T04:37:55;3.9;;;2.6;;
69917;SDS011;57203;42.672;23.334;2023-03-01T04:38:55;2.9;;;2.5;;
69917;SDS011;57203;42.672;23.334;2023-03-01T04:39:55;3.2;;;2.7;;
69917;SDS011;57203;42.672;23.334;2023-03-01T04:40:55;3.2;;;2.6;;
69917;SDS011;57203;42.672;23.334;2023-03-01T04:41:56;3.1;;;2.8;;
69917;SDS011;57203;42.672;23.334;2023-03-01T04:42:56;4.2;;;2.6;;
69917;SDS011;57203;42.672;23.334;2023-03-01T04:44:56;3.4;;;2.4;;
69917;SDS011;57203;42.672;23.334;2023-03-01T04:45:59;3.4;;;2.2;;
69917;SDS011;57203;42.672;23.334;2023-03-01T04:46:56;2.7;;;2.7;;
69917;SDS011;57203;42.672;23.334;2023-03-01T04:47:56;3.3;;;2.5;;
69917;SDS011;57203;42.672;23.334;2023-03-01T04:48:57;3.4;;;2.4;;
69917;SDS011;57203;42.672;23.334;2023-03-01T04:49:57;2.6;;;2.7;;
69917;SDS011;57203;42.672;23.334;2023-03-01T04:51:57;2.8;;;2.6;;
69917;SDS011;57203;42.672;23.334;2023-03-01T04:52:58;2.8;;;2.5;;
69917;SDS011;57203;42.672;23.334;2023-03-01T04:53:58;4.0;;;2.6;;
69917;SDS011;57203;42.672;23.334;2023-03-01T04:55:58;4.7;;;2.7;;
69917;SDS011;57203;42.672;23.334;2023-03-01T04:56:58;4.2;;;4.8;;
69917;SDS011;57203;42.672;23.334;2023-03-01T04:57:58;5.7;;;4.2;;
69917;SDS011;57203;42.672;23.334;2023-03-01T04:58:58;5.7;;;3.2;;
69917;SDS011;57203;42.672;23.334;2023-03-01T04:59:58;7.0;;;3.0;;
69917;SDS011;57203;42.672;23.334;2023-03-01T05:00:59;7.0;;;2.7;;
69917;SDS011;57203;42.672;23.334;2023-03-01T05:04:59;3.1;;;2.2;;
69917;SDS011;57203;42.672;23.334;2023-03-01T05:05:59;3.1;;;2.5;;
69917;SDS011;57203;42.672;23.334;2023-03-01T05:07:00;4.4;;;2.4;;
69917;SDS011;57203;42.672;23.334;2023-03-01T05:08:00;4.4;;;2.7;;
69917;SDS011;57203;42.672;23.334;2023-03-01T05:09:00;3.9;;;2.1;;
69917;SDS011;57203;42.672;23.334;2023-03-01T05:10:00;3.5;;;2.3;;
69917;SDS011;57203;42.672;23.334;2023-03-01T05:11:00;2.9;;;2.4;;
69917;SDS011;57203;42.672;23.334;2023-03-01T05:12:00;3.0;;;2.3;;
69917;SDS011;57203;42.672;23.334;2023-03-01T05:13:01;3.0;;;2.4;;
69917;SDS011;57203;42.672;23.334;2023-03-01T05:14:01;3.7;;;2.2;;
69917;SDS011;57203;42.672;23.334;2023-03-01T05:16:01;2.9;;;2.1;;
69917;SDS011;57203;42.672;23.334;2023-03-01T05:17:01;3.1;;;2.4;;
69917;SDS011;57203;42.672;23.334;2023-03-01T05:19:02;4.5;;;2.7;;
69917;SDS011;57203;42.672;23.334;2023-03-01T05:20:02;3.6;;;2.5;;
69917;SDS011;57203;42.672;23.334;2023-03-01T05:21:02;3.2;;;2.4;;
69917;SDS011;57203;42.672;23.334;2023-03-01T05:22:02;3.5;;;2.5;;
69917;SDS011;57203;42.672;23.334;2023-03-01T05:23:02;3.2;;;1.9;;
69917;SDS011;57203;42.672;23.334;2023-03-01T05:24:02;3.4;;;2.2;;
69917;SDS011;57203;42.672;23.334;2023-03-01T05:25:03;3.2;;;2.7;;
69917;SDS011;57203;42.672;23.334;2023-03-01T05:26:03;3.2;;;2.5;;
69917;SDS011;57203;42.672;23.334;2023-03-01T05:27:03;3.0;;;2.1;;
69917;SDS011;57203;42.672;23.334;2023-03-01T05:28:03;6.2;;;2.2;;
69917;SDS011;57203;42.672;23.334;2023-03-01T05:30:03;2.6;;;2.1;;
69917;SDS011;57203;42.672;23.334;2023-03-01T05:31:04;2.4;;;2.0;;
69917;SDS011;57203;42.672;23.334;2023-03-01T05:32:04;2.4;;;2.4;;
69917;SDS011;57203;42.672;23.334;2023-03-01T05:33:04;2.7;;;2.1;;
69917;SDS011;57203;42.672;23.334;2023-03-01T05:34:04;3.0;;;2.3;;
69917;SDS011;57203;42.672;23.334;2023-03-01T05:35:04;3.1;;;2.4;;
69917;SDS011;57203;42.672;23.334;2023-03-01T05:36:04;3.5;;;2.6;;
69917;SDS011;57203;42.672;23.334;2023-03-01T05:37:05;3.8;;;2.2;;
69917;SDS011;57203;42.672;23.334;2023-03-01T05:39:05;2.4;;;2.6;;
69917;SDS011;57203;42.672;23.334;2023-03-01T05:41:05;3.5;;;2.4;;
69917;SDS011;57203;42.672;23.334;2023-03-01T05:43:05;4.1;;;2.1;;
69917;SDS011;57203;42.672;23.334;2023-03-01T05:44:05;4.1;;;2.3;;
69917;SDS011;57203;42.672;23.334;2023-03-01T05:46:06;3.3;;;1.9;;
69917;SDS011;57203;42.672;23.334;2023-03-01T05:47:06;2.8;;;2.0;;
69917;SDS011;57203;42.672;23.334;2023-03-01T05:48:07;2.2;;;2.2;;
69917;SDS011;57203;42.672;23.334;2023-03-01T05:49:06;3.5;;;2.0;;
69917;SDS011;57203;42.672;23.334;2023-03-01T05:50:07;2.6;;;2.1;;
69917;SDS011;57203;42.672;23.334;2023-03-01T05:51:07;3.0;;;2.2;;
69917;SDS011;57203;42.672;23.334;2023-03-01T05:52:07;4.6;;;2.3;;
69917;SDS011;57203;42.672;23.334;2023-03-01T05:53:08;3.1;;;2.1;;
69917;SDS011;57203;42.672;23.334;2023-03-01T05:54:07;3.4;;;2.0;;
69917;SDS011;57203;42.672;23.334;2023-03-01T05:55:07;3.6;;;1.9;;
69917;SDS011;57203;42.672;23.334;2023-03-01T05:56:07;4.8;;;2.0;;
69917;SDS011;57203;42.672;23.334;2023-03-01T05:57:08;4.8;;;2.2;;
69917;SDS011;57203;42.672;23.334;2023-03-01T05:58:10;3.1;;;1.9;;
69917;SDS011;57203;42.672;23.334;2023-03-01T05:59:08;2.5;;;2.3;;
69917;SDS011;57203;42.672;23.334;2023-03-01T06:00:08;3.0;;;2.1;;
69917;SDS011;57203;42.672;23.334;2023-03-01T06:01:10;2.9;;;2.3;;
69917;SDS011;57203;42.672;23.334;2023-03-01T06:02:08;3.9;;;2.6;;
69917;SDS011;57203;42.672;23.334;2023-03-01T06:03:09;3.0;;;2.7;;
69917;SDS011;57203;42.672;23.334;2023-03-01T06:04:09;3.0;;;2.5;;
69917;SDS011;57203;42.672;23.334;2023-03-01T06:05:09;3.4;;;2.6;;
69917;SDS011;57203;42.672;23.334;2023-03-01T06:06:09;3.7;;;2.4;;
69917;SDS011;57203;42.672;23.334;2023-03-01T06:07:09;2.8;;;2.3;;
69917;SDS011;57203;42.672;23.334;2023-03-01T06:08:10;2.8;;;2.6;;
69917;SDS011;57203;42.672;23.334;2023-03-01T06:09:09;4.2;;;3.3;;
69917;SDS011;57203;42.672;23.334;2023-03-01T06:10:10;4.2;;;3.2;;
69917;SDS011;57203;42.672;23.334;2023-03-01T06:12:10;5.2;;;3.4;;
69917;SDS011;57203;42.672;23.334;2023-03-01T06:13:10;7.6;;;3.5;;
69917;SDS011;57203;42.672;23.334;2023-03-01T06:14:10;5.9;;;4.3;;
69917;SDS011;57203;42.672;23.334;2023-03-01T06:16:11;6.6;;;4.0;;
69917;SDS011;57203;42.672;23.334;2023-03-01T06:17:11;4.6;;;3.3;;
69917;SDS011;57203;42.672;23.334;2023-03-01T06:18:11;5.8;;;3.8;;
69917;SDS011;57203;42.672;23.334;2023-03-01T06:21:11;4.8;;;3.7;;
69917;SDS011;57203;42.672;23.334;2023-03-01T06:22:11;5.4;;;3.6;;
69917;SDS011;57203;42.672;23.334;2023-03-01T06:23:12;5.4;;;3.9;;
69917;SDS011;57203;42.672;23.334;2023-03-01T06:25:13;5.6;;;4.0;;
69917;SDS011;57203;42.672;23.334;2023-03-01T06:26:12;5.6;;;3.4;;
69917;SDS011;57203;42.672;23.334;2023-03-01T06:27:12;5.1;;;3.5;;
69917;SDS011;57203;42.672;23.334;2023-03-01T06:28:12;5.0;;;3.9;;
69917;SDS011;57203;42.672;23.334;2023-03-01T06:29:13;6.1;;;3.8;;
69917;SDS011;57203;42.672;23.334;2023-03-01T06:30:13;6.5;;;3.5;;
69917;SDS011;57203;42.672;23.334;2023-03-01T06:31:13;6.5;;;3.9;;
69917;SDS011;57203;42.672;23.334;2023-03-01T06:32:13;5.1;;;4.1;;
69917;SDS011;57203;42.672;23.334;2023-03-01T06:33:13;5.8;;;4.0;;
69917;SDS011;57203;42.672;23.334;2023-03-01T06:34:13;5.9;;;3.7;;
69917;SDS011;57203;42.672;23.334;2023-03-01T06:35:14;6.7;;;3.9;;
69917;SDS011;57203;42.672;23.334;2023-03-01T06:36:14;8.5;;;3.6;;
69917;SDS011;57203;42.672;23.334;2023-03-01T06:37:14;5.6;;;3.7;;
69917;SDS011;57203;42.672;23.334;2023-03-01T06:38:14;5.6;;;3.9;;
69917;SDS011;57203;42.672;23.334;2023-03-01T06:39:14;6.7;;;3.5;;
69917;SDS011;57203;42.672;23.334;2023-03-01T06:40:15;6.7;;;3.9;;
69917;SDS011;57203;42.672;23.334;2023-03-01T06:41:14;6.3;;;3.6;;
69917;SDS011;57203;42.672;23.334;2023-03-01T06:43:15;5.1;;;3.8;;
69917;SDS011;57203;42.672;23.334;2023-03-01T06:44:15;6.3;;;3.6;;
69917;SDS011;57203;42.672;23.334;2023-03-01T06:45:15;5.5;;;3.7;;
69917;SDS011;57203;42.672;23.334;2023-03-01T06:46:15;4.4;;;3.2;;
69917;SDS011;57203;42.672;23.334;2023-03-01T06:47:15;4.4;;;3.4;;
69917;SDS011;57203;42.672;23.334;2023-03-01T06:48:16;5.7;;;3.0;;
69917;SDS011;57203;42.672;23.334;2023-03-01T06:49:16;5.0;;;3.5;;
69917;SDS011;57203;42.672;23.334;2023-03-01T06:50:16;4.1;;;2.9;;
69917;SDS011;57203;42.672;23.334;2023-03-01T06:51:16;4.1;;;3.1;;
69917;SDS011;57203;42.672;23.334;2023-03-01T06:52:16;3.7;;;2.9;;
69917;SDS011;57203;42.672;23.334;2023-03-01T06:54:16;5.9;;;2.8;;
69917;SDS011;57203;42.672;23.334;2023-03-01T06:55:17;3.7;;;3.3;;
69917;SDS011;57203;42.672;23.334;2023-03-01T06:56:17;5.2;;;3.2;;
69917;SDS011;57203;42.672;23.334;2023-03-01T06:57:17;5.9;;;2.8;;
69917;SDS011;57203;42.672;23.334;2023-03-01T06:59:17;4.2;;;2.6;;
69917;SDS011;57203;42.672;23.334;2023-03-01T07:00:18;4.1;;;2.8;;
69917;SDS011;57203;42.672;23.334;2023-03-01T07:01:18;6.2;;;2.9;;
69917;SDS011;57203;42.672;23.334;2023-03-01T07:02:18;3.7;;;2.8;;
69917;SDS011;57203;42.672;23.334;2023-03-01T07:03:18;3.7;;;2.6;;
69917;SDS011;57203;42.672;23.334;2023-03-01T07:04:18;4.8;;;2.7;;
69917;SDS011;57203;42.672;23.334;2023-03-01T07:06:18;3.8;;;3.0;;
69917;SDS011;57203;42.672;23.334;2023-03-01T07:07:19;6.0;;;3.4;;
69917;SDS011;57203;42.672;23.334;2023-03-01T07:08:19;5.3;;;2.8;;
69917;SDS011;57203;42.672;23.334;2023-03-01T07:09:19;3.5;;;3.3;;
69917;SDS011;57203;42.672;23.334;2023-03-01T07:10:19;6.5;;;3.0;;
69917;SDS011;57203;42.672;23.334;2023-03-01T07:11:19;6.5;;;3.5;;
69917;SDS011;57203;42.672;23.334;2023-03-01T07:12:19;4.4;;;2.8;;
69917;SDS011;57203;42.672;23.334;2023-03-01T07:13:19;4.1;;;3.1;;
69917;SDS011;57203;42.672;23.334;2023-03-01T07:14:20;4.1;;;3.0;;
69917;SDS011;57203;42.672;23.334;2023-03-01T07:15:20;5.4;;;2.9;;
69917;SDS011;57203;42.672;23.334;2023-03-01T07:16:20;5.4;;;2.7;;